Bisbee Douglas International Airport Douglas Bisbee US
ICAO: KDUG
IATA: DUG
Category: Medium
Scheduled Services: No

Elevation: 4154 ft
TransAlt. 18000 ft.

Airport Communications:
ASOS:119.275
PRESCOTT RDO:122.4
CTAF/UNICOM:123

KDUG Zoom In..

Runways:

(A) RW 08 length 4966 ft width 60 ft
---- / hdg 78

(B) RW 17 length 6430 ft width 100 ft
---- / hdg 168

(C) RW 26 length 4966 ft width 60 ft
---- / hdg 258

(D) RW 35 length 6430 ft width 100 ft
---- / hdg 348

Location; KDUG
Day. 19 / Time. 02.56 Zulu
* Altimeter: 30.10
* Temperature: 31° c. 87.8°f.
* Wind from: 260° Speed 08 kn.
Dewpoint: 12° c.
Visibility: 10 Statute Miles.
Clouds: Few 1000 ft.

KDUG 190256Z AUTO 26008KT 10SM FEW100 31/12 A3010 RMK AO2 SLP115 T03060122 53007


Wind From 260°
Speed 08 kn.

 
 
jpsmedia.com for Web Design worldairports.se 2018   terms of use